Time;durP1;ratioP1;P1;durP2;ratioP2;P2;SDS_P1;SDS_P2;PMS_P1;PMS_P2;Temp;Humidity;BMP_temperature;BMP_pressure;BME280_temperature;BME280_humidity;BME280_pressure;Samples;Min_cycle;Max_cycle;Signal;HPM_P1;HPM_P2
2022/11/14 00:00:58;;;;;;;103.55;44.47;;;6.60;99.90;;;;;;6253136;23;20023;-78
2022/11/14 00:03:42;;;;;;;115.22;45.83;;;6.60;99.90;;;;;;6263023;23;20038;-78
2022/11/14 00:06:27;;;;;;;103.32;44.47;;;6.70;99.90;;;;;;6259069;23;20073;-79
2022/11/14 00:09:12;;;;;;;106.97;46.30;;;6.70;99.90;;;;;;6258121;23;20055;-79
2022/11/14 00:11:56;;;;;;;99.53;44.22;;;6.70;99.90;;;;;;6262191;23;20068;-80
2022/11/14 00:14:41;;;;;;;112.25;45.42;;;6.70;99.90;;;;;;6269053;23;20023;-78
2022/11/14 00:17:25;;;;;;;107.10;44.20;;;6.70;99.90;;;;;;6270607;23;20023;-79
2022/11/14 00:20:11;;;;;;;97.22;41.17;;;6.70;99.90;;;;;;6270431;23;20023;-79
2022/11/14 00:22:56;;;;;;;106.80;44.13;;;6.60;99.90;;;;;;6269414;22;20088;-78
2022/11/14 00:25:40;;;;;;;105.90;42.60;;;6.60;99.90;;;;;;6258363;23;20023;-79
2022/11/14 00:28:24;;;;;;;101.97;45.10;;;6.60;99.90;;;;;;6253291;23;20051;-80
2022/11/14 00:31:10;;;;;;;104.10;43.05;;;6.60;99.90;;;;;;6254806;23;20343;-79
2022/11/14 00:33:54;;;;;;;100.35;43.47;;;6.60;99.90;;;;;;6231749;23;20105;-80
2022/11/14 00:36:38;;;;;;;108.20;44.47;;;6.60;99.90;;;;;;6233699;23;20085;-78
2022/11/14 00:39:23;;;;;;;97.83;42.27;;;6.70;99.90;;;;;;6254991;23;20035;-80
2022/11/14 00:42:08;;;;;;;100.68;43.40;;;6.70;99.90;;;;;;6255697;23;20050;-79
2022/11/14 00:44:52;;;;;;;101.28;43.63;;;6.70;99.90;;;;;;6231827;23;20027;-80
2022/11/14 00:47:36;;;;;;;98.43;43.42;;;6.70;99.90;;;;;;6258392;23;20401;-78
2022/11/14 00:50:20;;;;;;;108.43;42.97;;;6.70;99.90;;;;;;6259877;23;20024;-80
2022/11/14 00:53:05;;;;;;;108.75;44.55;;;6.70;99.90;;;;;;6260061;23;20035;-79
2022/11/14 00:55:50;;;;;;;101.57;43.28;;;6.70;99.90;;;;;;6260829;23;20034;-78
2022/11/14 00:58:34;;;;;;;101.07;42.75;;;6.70;99.90;;;;;;6256329;23;20016;-78
2022/11/14 01:01:18;;;;;;;96.40;42.25;;;6.70;99.90;;;;;;6258368;23;20027;-79
2022/11/14 01:04:02;;;;;;;101.13;42.78;;;6.70;99.90;;;;;;6259195;23;20099;-78
2022/11/14 01:06:47;;;;;;;100.82;43.67;;;6.60;99.90;;;;;;6257831;23;20156;-79
2022/11/14 01:09:31;;;;;;;101.07;43.08;;;6.60;99.90;;;;;;6256041;23;20350;-79
2022/11/14 01:12:16;;;;;;;93.43;41.75;;;6.60;99.90;;;;;;6259451;23;20003;-77
2022/11/14 01:15:01;;;;;;;107.45;43.47;;;6.60;99.90;;;;;;6265897;23;20023;-78
2022/11/14 01:17:45;;;;;;;93.38;43.55;;;6.60;99.90;;;;;;6264215;23;20018;-79
2022/11/14 01:20:29;;;;;;;97.35;42.83;;;6.60;99.90;;;;;;6255684;23;20023;-79
2022/11/14 01:23:15;;;;;;;98.13;43.33;;;6.50;99.90;;;;;;6254446;23;20038;-78
2022/11/14 01:26:03;;;;;;;;;;;6.50;99.90;;;;;;6256901;23;20066;-79
2022/11/14 01:28:48;;;;;;;102.60;43.40;;;6.50;99.90;;;;;;6256121;23;20437;-79
2022/11/14 01:31:32;;;;;;;107.43;44.13;;;6.50;99.90;;;;;;6257059;23;20080;-80
2022/11/14 01:34:16;;;;;;;110.03;43.65;;;6.50;99.90;;;;;;6258233;23;20066;-79
2022/11/14 01:37:00;;;;;;;105.15;44.97;;;6.60;99.90;;;;;;6260498;23;20023;-80
2022/11/14 01:39:45;;;;;;;98.50;43.20;;;6.50;99.90;;;;;;6260620;23;20019;-79
2022/11/14 01:42:30;;;;;;;99.88;44.95;;;6.60;99.90;;;;;;6240861;23;20019;-80
2022/11/14 01:45:49;;;;;;;96.07;43.85;;;6.60;99.90;;;;;;6241580;23;20027;-79
2022/11/14 01:48:44;;;;;;;110.65;43.90;;;6.60;99.90;;;;;;6235583;23;20063;-79
2022/11/14 01:51:33;;;;;;;104.10;43.78;;;6.60;99.90;;;;;;6260061;23;20557;-78
2022/11/14 01:54:24;;;;;;;101.10;43.42;;;6.60;99.90;;;;;;6260818;23;20026;-78
2022/11/14 01:57:11;;;;;;;101.70;43.25;;;6.60;99.90;;;;;;6260019;23;20018;-78
2022/11/14 02:00:00;;;;;;;99.10;45.17;;;6.70;99.90;;;;;;6260690;23;20072;-78
2022/11/14 02:02:45;;;;;;;99.35;43.97;;;6.70;99.90;;;;;;6258640;23;20027;-77
2022/11/14 02:05:30;;;;;;;93.93;42.40;;;6.70;99.90;;;;;;6260953;23;20584;-80
2022/11/14 02:08:15;;;;;;;93.57;43.63;;;6.70;99.90;;;;;;6238794;23;20066;-79
2022/11/14 02:11:00;;;;;;;101.65;42.97;;;6.80;99.90;;;;;;6260230;23;20039;-78
2022/11/14 02:13:44;;;;;;;84.10;39.20;;;6.80;99.90;;;;;;6256990;23;20066;-78
2022/11/14 02:16:29;;;;;;;95.07;41.22;;;6.90;99.90;;;;;;6260340;23;20035;-77
2022/11/14 02:19:14;;;;;;;97.40;41.80;;;6.90;99.90;;;;;;6259481;23;20019;-79
2022/11/14 02:21:59;;;;;;;;;;;6.90;99.90;;;;;;6255833;23;20023;-79
2022/11/14 02:24:43;;;;;;;88.65;39.20;;;6.90;99.90;;;;;;6254045;23;19965;-78
2022/11/14 02:27:30;;;;;;;86.80;40.03;;;7.00;99.90;;;;;;6257412;23;20023;-77
2022/11/14 02:30:19;;;;;;;85.80;40.20;;;7.00;99.90;;;;;;6256372;23;20070;-78
2022/11/14 02:33:03;;;;;;;84.05;38.92;;;7.00;99.90;;;;;;6238718;23;20397;-78
2022/11/14 02:35:47;;;;;;;84.35;39.22;;;7.10;99.90;;;;;;6259098;23;20062;-78
2022/11/14 02:38:32;;;;;;;83.18;38.42;;;7.10;99.90;;;;;;6259872;23;20547;-78
2022/11/14 02:41:16;;;;;;;83.15;40.83;;;7.10;99.90;;;;;;6232848;23;20465;-78
2022/11/14 02:44:01;;;;;;;81.82;38.88;;;7.10;99.90;;;;;;6255577;23;20023;-79
2022/11/14 02:46:46;;;;;;;83.50;39.50;;;7.10;99.90;;;;;;6257959;23;20034;-79
2022/11/14 02:49:30;;;;;;;92.63;41.45;;;7.20;99.90;;;;;;6235048;23;20093;-78
2022/11/14 02:52:15;;;;;;;90.60;40.42;;;7.30;99.90;;;;;;6256701;23;20016;-79
2022/11/14 02:55:00;;;;;;;83.72;40.58;;;7.30;99.90;;;;;;6231478;23;20023;-78
2022/11/14 02:57:44;;;;;;;91.82;39.97;;;7.30;99.90;;;;;;6253471;23;20353;-79
2022/11/14 03:00:29;;;;;;;83.43;39.63;;;7.30;99.90;;;;;;6252732;23;20018;-79
2022/11/14 03:03:14;;;;;;;93.05;40.83;;;7.40;99.90;;;;;;6258605;22;20039;-87
2022/11/14 03:06:00;;;;;;;86.20;40.90;;;7.40;99.90;;;;;;6266471;23;20023;-85
2022/11/14 03:08:45;;;;;;;92.38;40.35;;;7.40;99.90;;;;;;6272413;22;20031;-86
2022/11/14 03:11:30;;;;;;;81.30;38.97;;;7.50;99.90;;;;;;6273017;22;20034;-83
2022/11/14 03:14:14;;;;;;;86.00;39.55;;;7.50;99.90;;;;;;6273626;22;20031;-85
2022/11/14 03:16:59;;;;;;;86.80;40.72;;;7.50;99.90;;;;;;6273432;22;20041;-85
2022/11/14 03:19:44;;;;;;;85.40;39.38;;;7.40;99.90;;;;;;6271994;23;20023;-88
2022/11/14 03:22:28;;;;;;;83.10;41.28;;;7.40;99.90;;;;;;6261659;23;20170;-86
2022/11/14 03:25:13;;;;;;;98.40;40.33;;;7.30;99.90;;;;;;6258937;23;20091;-88
2022/11/14 03:27:58;;;;;;;88.30;39.40;;;7.30;99.90;;;;;;6269467;22;20069;-84
2022/11/14 03:30:42;;;;;;;85.10;40.75;;;7.30;99.90;;;;;;6273883;22;20031;-83
2022/11/14 03:33:27;;;;;;;87.82;40.55;;;7.30;99.90;;;;;;6273836;22;20030;-83
2022/11/14 03:36:12;;;;;;;85.80;39.83;;;7.30;99.90;;;;;;6269548;22;20023;-86
2022/11/14 03:38:56;;;;;;;90.07;40.28;;;7.40;99.90;;;;;;6267486;23;20075;-86
2022/11/14 03:41:41;;;;;;;96.78;42.35;;;7.40;99.90;;;;;;6267475;22;20031;-84
2022/11/14 03:44:26;;;;;;;85.85;39.30;;;7.40;99.90;;;;;;6273472;22;20039;-83
2022/11/14 03:47:11;;;;;;;82.47;39.33;;;7.40;99.90;;;;;;6273717;22;20002;-83
2022/11/14 03:49:55;;;;;;;84.05;39.90;;;7.40;99.90;;;;;;6274872;22;20056;-83
2022/11/14 03:52:40;;;;;;;86.70;38.88;;;7.40;99.90;;;;;;6273713;22;20008;-84
2022/11/14 03:55:24;;;;;;;75.67;37.63;;;7.40;99.90;;;;;;6273568;22;20222;-83
2022/11/14 03:58:09;;;;;;;81.00;39.70;;;7.40;99.90;;;;;;6272204;22;20047;-86
2022/11/14 04:00:56;;;;;;;91.40;41.25;;;7.40;99.90;;;;;;6269550;23;20072;-86
2022/11/14 04:03:41;;;;;;;82.72;37.45;;;7.40;99.90;;;;;;6271717;22;20365;-84
2022/11/14 04:06:25;;;;;;;82.63;38.28;;;7.40;99.90;;;;;;6272829;22;20015;-84
2022/11/14 04:09:10;;;;;;;76.88;37.55;;;7.30;99.90;;;;;;6273563;22;20035;-84
2022/11/14 04:11:55;;;;;;;80.45;36.05;;;7.30;99.90;;;;;;6273471;22;20008;-84
2022/11/14 04:14:42;;;;;;;83.82;37.70;;;7.30;99.90;;;;;;6273593;22;20033;-87
2022/11/14 04:17:27;;;;;;;82.40;37.83;;;7.20;99.90;;;;;;6268106;23;20023;-88
2022/11/14 04:20:13;;;;;;;80.32;38.20;;;7.20;99.90;;;;;;6264135;23;20034;-88
2022/11/14 04:22:59;;;;;;;73.05;36.50;;;7.30;99.90;;;;;;6268184;23;20023;-89
2022/11/14 04:25:45;;;;;;;75.13;34.72;;;7.20;99.90;;;;;;6264926;23;20027;-88
2022/11/14 04:28:29;;;;;;;79.38;35.90;;;7.20;99.90;;;;;;6266499;23;20019;-89
2022/11/14 04:31:14;;;;;;;72.63;34.67;;;7.20;99.90;;;;;;6272448;23;20055;-88
2022/11/14 04:33:59;;;;;;;86.40;37.00;;;7.10;99.90;;;;;;6273165;22;20007;-87
2022/11/14 04:36:44;;;;;;;76.63;35.28;;;7.10;99.90;;;;;;6275705;22;20063;-88
2022/11/14 04:39:28;;;;;;;77.05;36.55;;;7.10;99.90;;;;;;6275393;22;20019;-88
2022/11/14 04:42:13;;;;;;;74.88;35.83;;;7.10;99.90;;;;;;6275514;22;20051;-88
2022/11/14 04:44:58;;;;;;;77.43;37.25;;;7.10;99.90;;;;;;6274931;22;20092;-87
2022/11/14 04:47:43;;;;;;;74.70;37.22;;;7.00;99.90;;;;;;6275517;22;20027;-86
2022/11/14 04:50:27;;;;;;;72.32;36.60;;;7.00;99.90;;;;;;6276143;22;20035;-89
2022/11/14 04:53:14;;;;;;;76.00;35.33;;;7.10;99.90;;;;;;6275715;22;20027;-88
2022/11/14 04:55:58;;;;;;;76.05;36.20;;;7.10;99.90;;;;;;6275649;22;20060;-87
2022/11/14 04:58:43;;;;;;;82.07;39.08;;;7.10;99.90;;;;;;6275930;22;20007;-88
2022/11/14 05:01:27;;;;;;;88.88;42.17;;;7.10;99.90;;;;;;6275993;22;20010;-87
2022/11/14 05:04:14;;;;;;;90.18;39.72;;;7.10;99.90;;;;;;6275413;22;20054;-87
2022/11/14 05:06:59;;;;;;;88.85;40.30;;;7.20;99.90;;;;;;6274239;22;20019;-87
2022/11/14 05:09:46;;;;;;;84.55;38.30;;;7.20;99.90;;;;;;6275832;22;20015;-89
2022/11/14 05:12:31;;;;;;;78.53;38.20;;;7.20;99.90;;;;;;6274886;22;20034;-87
2022/11/14 05:15:16;;;;;;;95.25;40.97;;;7.20;99.90;;;;;;6274564;22;20007;-87
2022/11/14 05:18:01;;;;;;;84.88;40.10;;;7.20;99.90;;;;;;6274444;22;20027;-86
2022/11/14 05:20:46;;;;;;;88.30;42.58;;;7.30;99.90;;;;;;6270958;22;20034;-88
2022/11/14 05:23:30;;;;;;;99.68;45.05;;;7.30;99.90;;;;;;6266209;23;20027;-87
2022/11/14 05:26:16;;;;;;;104.78;45.00;;;7.30;99.90;;;;;;6257446;23;20474;-86
2022/11/14 05:29:03;;;;;;;109.28;46.10;;;7.30;99.90;;;;;;6265202;23;20072;-88
2022/11/14 05:31:48;;;;;;;;;;;7.20;99.90;;;;;;6267120;23;20054;-87
2022/11/14 05:34:36;;;;;;;108.40;47.08;;;7.20;99.90;;;;;;6268627;23;19918;-86
2022/11/14 05:37:23;;;;;;;115.97;48.67;;;7.20;99.90;;;;;;6271068;22;20047;-86
2022/11/14 05:40:10;;;;;;;118.97;49.75;;;7.20;99.90;;;;;;6270984;23;20051;-87
2022/11/14 05:42:55;;;;;;;;;;;7.20;99.90;;;;;;6270445;23;20015;-88
2022/11/14 05:45:40;;;;;;;120.43;49.65;;;7.20;99.90;;;;;;6271933;22;20049;-88
2022/11/14 05:48:25;;;;;;;108.45;48.63;;;7.20;99.90;;;;;;6271901;22;20093;-88
2022/11/14 05:51:11;;;;;;;122.78;47.65;;;7.20;99.90;;;;;;6271463;22;20031;-87
2022/11/14 05:53:56;;;;;;;106.43;48.28;;;7.20;99.90;;;;;;6272216;22;20011;-88
2022/11/14 05:56:40;;;;;;;109.70;50.65;;;7.20;99.90;;;;;;6267637;23;20019;-87
2022/11/14 05:59:26;;;;;;;106.18;47.40;;;7.20;99.90;;;;;;6274899;22;20011;-88
2022/11/14 06:02:11;;;;;;;107.20;45.38;;;7.20;99.90;;;;;;6274508;22;20038;-88
2022/11/14 06:04:55;;;;;;;108.20;47.28;;;7.20;99.90;;;;;;6270712;22;20042;-87
2022/11/14 06:07:40;;;;;;;94.47;43.35;;;7.20;99.90;;;;;;6269071;22;20026;-87
2022/11/14 06:10:25;;;;;;;112.05;47.42;;;7.20;99.90;;;;;;6270509;22;20043;-89
2022/11/14 06:13:09;;;;;;;95.55;43.55;;;7.20;99.90;;;;;;6269605;23;20076;-89
2022/11/14 06:16:01;;;;;;;98.88;44.75;;;7.20;99.90;;;;;;6271155;23;20030;-87
2022/11/14 06:18:47;;;;;;;91.97;41.83;;;7.30;99.90;;;;;;6265708;22;20019;-88
2022/11/14 06:21:32;;;;;;;98.57;44.40;;;7.20;99.90;;;;;;6259107;23;20019;-87
2022/11/14 06:24:17;;;;;;;101.15;45.00;;;7.20;99.90;;;;;;6261336;23;20003;-89
2022/11/14 06:27:02;;;;;;;106.05;47.53;;;7.10;99.90;;;;;;6255381;23;20058;-88
2022/11/14 06:29:47;;;;;;;108.57;44.58;;;7.10;99.90;;;;;;6259108;23;20497;-90
2022/11/14 06:34:00;;;;;;;;;;;;;;;;;;;;;
2022/11/14 06:36:45;;;;;;;94.38;41.72;;;7.10;99.90;;;;;;6264933;23;20076;-88
2022/11/14 06:39:30;;;;;;;105.43;43.72;;;7.10;99.90;;;;;;6263088;23;20019;-88
2022/11/14 06:42:15;;;;;;;107.00;43.83;;;7.10;99.90;;;;;;6263427;23;20018;-89
2022/11/14 06:45:00;;;;;;;104.75;44.90;;;7.10;99.90;;;;;;6264038;23;20023;-86
2022/11/14 06:47:45;;;;;;;95.78;43.67;;;7.10;99.90;;;;;;6262665;23;20019;-89
2022/11/14 06:50:29;;;;;;;97.20;44.58;;;7.20;99.90;;;;;;6265186;23;20019;-88
2022/11/14 06:53:14;;;;;;;95.95;44.47;;;7.20;99.90;;;;;;6265819;23;20007;-88
2022/11/14 06:56:02;;;;;;;101.45;45.30;;;7.20;99.90;;;;;;6263948;23;20072;-88
2022/11/14 06:58:49;;;;;;;112.15;45.10;;;7.20;99.90;;;;;;6262231;23;20018;-88
2022/11/14 07:01:34;;;;;;;128.18;55.08;;;7.20;99.90;;;;;;6260813;23;20035;-88
2022/11/14 07:04:18;;;;;;;110.32;47.38;;;7.20;99.90;;;;;;6264360;23;20145;-89
2022/11/14 07:07:03;;;;;;;107.97;44.97;;;7.20;99.90;;;;;;6262561;23;20015;-87
2022/11/14 07:09:48;;;;;;;99.93;44.33;;;7.30;99.90;;;;;;6264112;23;20039;-89
2022/11/14 07:12:32;;;;;;;108.55;46.78;;;7.30;99.90;;;;;;6263066;23;20023;-89
2022/11/14 07:15:17;;;;;;;91.40;42.05;;;7.30;99.90;;;;;;6262850;23;20070;-88
2022/11/14 07:18:02;;;;;;;97.50;42.88;;;7.40;99.90;;;;;;6264043;23;20026;-88
2022/11/14 07:20:46;;;;;;;98.05;43.28;;;7.40;99.90;;;;;;6271741;22;20071;-88
2022/11/14 07:23:33;;;;;;;96.63;45.75;;;7.50;99.90;;;;;;6272134;22;20018;-88
2022/11/14 07:26:17;;;;;;;94.05;42.08;;;7.40;99.90;;;;;;6271284;22;20039;-88
2022/11/14 07:29:02;;;;;;;101.85;43.60;;;7.50;99.90;;;;;;6266897;23;20515;-88
2022/11/14 07:31:47;;;;;;;90.10;41.45;;;7.50;99.90;;;;;;6263351;23;20027;-89
2022/11/14 07:34:34;;;;;;;99.88;44.40;;;7.60;99.90;;;;;;6262317;23;20035;-89
2022/11/14 07:37:18;;;;;;;92.40;41.03;;;7.60;99.90;;;;;;6263967;23;20023;-90
2022/11/14 07:40:03;;;;;;;86.53;41.28;;;7.70;99.90;;;;;;6260163;23;20039;-89
2022/11/14 07:42:48;;;;;;;94.50;42.63;;;7.70;99.90;;;;;;6262420;23;20131;-88
2022/11/14 07:45:36;;;;;;;89.03;42.40;;;7.80;99.90;;;;;;6257109;23;20023;-88
2022/11/14 07:48:21;;;;;;;99.90;45.00;;;7.90;99.90;;;;;;6255755;23;20069;-90
2022/11/14 07:51:09;;;;;;;;;;;7.90;99.90;;;;;;6254218;23;20019;-89
2022/11/14 07:53:55;;;;;;;105.47;43.90;;;8.00;99.90;;;;;;6257758;23;19938;-87
2022/11/14 07:56:39;;;;;;;99.07;44.83;;;8.00;99.90;;;;;;6259762;23;20035;-88
2022/11/14 07:59:24;;;;;;;101.07;45.65;;;8.00;99.90;;;;;;6255172;23;20075;-87
2022/11/14 08:02:16;;;;;;;103.05;43.60;;;8.00;99.90;;;;;;6267494;23;20062;-88
2022/11/14 08:05:01;;;;;;;102.80;45.42;;;7.90;99.90;;;;;;6268437;23;20022;-88
2022/11/14 08:07:46;;;;;;;97.93;42.40;;;8.00;99.90;;;;;;6268043;23;20023;-89
2022/11/14 08:10:32;;;;;;;105.53;46.72;;;8.10;99.90;;;;;;6268903;23;20047;-88
2022/11/14 08:13:17;;;;;;;99.32;43.33;;;8.10;99.90;;;;;;6268793;23;20023;-89
2022/11/14 08:16:11;;;;;;;91.15;41.63;;;8.10;99.90;;;;;;6267767;23;20074;-88
2022/11/14 08:18:56;;;;;;;96.93;41.95;;;8.10;99.90;;;;;;6259454;23;20168;-88
2022/11/14 08:21:41;;;;;;;86.38;40.05;;;8.20;99.90;;;;;;6260723;23;20076;-88
2022/11/14 08:24:25;;;;;;;88.95;41.58;;;8.20;99.90;;;;;;6271227;22;20055;-90
2022/11/14 08:27:40;;;;;;;88.65;42.55;;;8.20;99.90;;;;;;6263506;23;20027;-87
2022/11/14 08:31:18;;;;;;;92.93;39.80;;;8.20;99.90;;;;;;6265550;23;20027;-86
2022/11/14 08:34:41;;;;;;;91.90;39.65;;;8.20;99.90;;;;;;6267034;23;20076;-86
2022/11/14 08:37:54;;;;;;;86.53;39.78;;;8.20;99.90;;;;;;6270087;23;20007;-87
2022/11/14 08:41:04;;;;;;;;;;;;;;;;;;;;;
2022/11/14 08:43:49;;;;;;;86.75;40.45;;;8.30;99.90;;;;;;6272692;22;20027;-87
2022/11/14 08:46:49;;;;;;;82.60;39.30;;;8.40;99.90;;;;;;6271668;22;20050;-87
2022/11/14 08:49:35;;;;;;;82.68;37.97;;;8.40;99.90;;;;;;6271587;22;20054;-86
2022/11/14 08:52:20;;;;;;;77.60;37.65;;;8.40;99.90;;;;;;6272463;22;20105;-89
2022/11/14 08:55:05;;;;;;;75.70;36.63;;;8.60;99.90;;;;;;6272537;22;20042;-87
2022/11/14 08:57:53;;;;;;;73.88;36.03;;;8.80;99.90;;;;;;6273534;22;20019;-88
2022/11/14 09:00:37;;;;;;;69.68;31.80;;;9.30;99.90;;;;;;6272356;22;20056;-87
2022/11/14 09:03:22;;;;;;;62.00;31.88;;;10.20;99.90;;;;;;6252642;22;20534;-82
2022/11/14 09:06:06;;;;;;;63.65;28.58;;;11.50;99.90;;;;;;6256984;23;20038;-81
2022/11/14 09:08:51;;;;;;;66.35;32.78;;;12.20;99.90;;;;;;6260066;23;20031;-79
2022/11/14 09:11:35;;;;;;;58.88;28.02;;;12.40;99.90;;;;;;6255121;23;20035;-83
2022/11/14 09:14:20;;;;;;;50.72;25.00;;;13.10;99.90;;;;;;6259333;23;20027;-79
2022/11/14 09:17:04;;;;;;;40.08;23.48;;;14.00;99.90;;;;;;6257015;23;20049;-81
2022/11/14 09:19:49;;;;;;;48.88;23.85;;;14.40;99.90;;;;;;6253186;23;20023;-82
2022/11/14 09:22:34;;;;;;;46.28;24.83;;;13.90;99.90;;;;;;6251966;23;20018;-82
2022/11/14 09:25:20;;;;;;;44.67;24.90;;;13.90;99.90;;;;;;6251490;23;20091;-81
2022/11/14 09:28:06;;;;;;;46.78;24.30;;;13.70;99.90;;;;;;6228171;23;20019;-81
2022/11/14 09:30:50;;;;;;;38.30;22.58;;;14.30;99.90;;;;;;6232553;23;20018;-78
2022/11/14 09:33:35;;;;;;;40.63;22.48;;;15.60;99.90;;;;;;6254582;23;20015;-80
2022/11/14 09:36:20;;;;;;;36.92;22.05;;;16.70;99.90;;;;;;6258678;23;20023;-80
2022/11/14 09:39:04;;;;;;;41.13;22.58;;;16.90;99.90;;;;;;6249816;23;20472;-80
2022/11/14 09:42:11;;;;;;;40.00;23.00;;;17.00;99.90;;;;;;6247921;23;20066;-80
2022/11/14 09:45:05;;;;;;;39.17;21.38;;;17.40;99.90;;;;;;6250993;23;20026;-78
2022/11/14 09:47:54;;;;;;;38.13;21.80;;;17.70;99.90;;;;;;6250285;23;20046;-78
2022/11/14 09:50:45;;;;;;;37.75;20.92;;;17.90;99.90;;;;;;6225909;23;20512;-77
2022/11/14 09:53:45;;;;;;;35.35;20.70;;;18.10;99.90;;;;;;6249340;23;20504;-79
2022/11/14 09:56:30;;;;;;;41.00;21.73;;;18.00;99.90;;;;;;6261068;23;20067;-79
2022/11/14 09:59:14;;;;;;;40.05;20.27;;;18.80;99.90;;;;;;6268033;23;20031;-79
2022/11/14 10:02:12;;;;;;;44.67;22.63;;;19.20;99.90;;;;;;6262626;23;20047;-81
2022/11/14 10:05:34;;;;;;;39.47;20.90;;;18.90;99.90;;;;;;6241341;23;20329;-80
2022/11/14 10:08:39;;;;;;;37.88;21.50;;;18.90;99.90;;;;;;6241474;23;20050;-77
2022/11/14 10:11:38;;;;;;;32.85;19.98;;;18.90;99.90;;;;;;6240290;23;20015;-77
2022/11/14 10:15:02;;;;;;;33.40;21.05;;;19.20;99.90;;;;;;6218854;23;20085;-78
2022/11/14 10:17:52;;;;;;;30.98;20.48;;;19.00;99.90;;;;;;6221934;23;20043;-79
2022/11/14 10:20:53;;;;;;;37.03;20.65;;;18.80;99.90;;;;;;6222542;23;20075;-79
2022/11/14 10:23:38;;;;;;;33.05;20.00;;;18.80;99.90;;;;;;6223911;23;20045;-82
2022/11/14 10:26:28;;;;;;;32.55;19.95;;;18.40;99.90;;;;;;6225635;23;20219;-84
2022/11/14 10:29:40;;;;;;;37.03;20.73;;;18.10;99.90;;;;;;6226908;23;20024;-83
2022/11/14 10:32:48;;;;;;;35.45;19.95;;;19.00;99.90;;;;;;6223213;23;20024;-80
2022/11/14 10:35:41;;;;;;;36.80;19.73;;;19.00;99.90;;;;;;6170134;23;20065;-81
2022/11/14 10:38:37;;;;;;;37.90;20.00;;;19.20;99.90;;;;;;6182100;23;20034;-80
2022/11/14 10:41:24;;;;;;;32.10;19.60;;;19.90;98.80;;;;;;6225547;23;20019;-82
2022/11/14 10:44:14;;;;;;;31.35;19.45;;;19.90;98.20;;;;;;6203435;23;20023;-81
2022/11/14 10:47:04;;;;;;;35.80;21.65;;;19.20;99.00;;;;;;6231049;23;20104;-81
2022/11/14 10:49:54;;;;;;;33.08;20.05;;;19.00;99.10;;;;;;6240386;23;20039;-79
2022/11/14 10:52:42;;;;;;;31.83;20.05;;;18.90;99.50;;;;;;6218801;23;20011;-81
2022/11/14 10:55:27;;;;;;;35.72;22.25;;;19.40;98.90;;;;;;6218974;23;20012;-81
2022/11/14 10:58:13;;;;;;;34.40;21.30;;;19.70;98.00;;;;;;6233577;23;20024;-83
2022/11/14 11:01:31;;;;;;;32.03;21.48;;;19.90;97.70;;;;;;6206805;23;20038;-82
2022/11/14 11:04:35;;;;;;;38.22;20.13;;;19.10;98.00;;;;;;6207452;23;20023;-82
2022/11/14 11:13:47;;;;;;;30.83;20.45;;;18.70;98.80;;;;;;6231179;23;20074;-81
2022/11/14 11:16:31;;;;;;;38.25;20.52;;;19.30;98.50;;;;;;6228264;23;20020;-82
2022/11/14 11:19:25;;;;;;;32.33;20.05;;;19.40;98.00;;;;;;6207633;23;20040;-80
2022/11/14 11:22:33;;;;;;;33.22;19.55;;;19.80;97.40;;;;;;6230735;23;20053;-81
2022/11/14 11:25:29;;;;;;;31.10;19.67;;;20.90;96.20;;;;;;6208071;23;20036;-84
2022/11/14 11:28:19;;;;;;;30.33;18.92;;;21.30;95.30;;;;;;6212748;23;20051;-83
2022/11/14 11:31:09;;;;;;;28.65;18.15;;;21.50;94.50;;;;;;6232845;23;20015;-82
2022/11/14 11:33:54;;;;;;;27.63;18.65;;;21.30;94.30;;;;;;6235024;23;20047;-81
2022/11/14 11:36:45;;;;;;;29.38;19.10;;;21.50;94.00;;;;;;6213195;23;20020;-82
2022/11/14 11:39:40;;;;;;;33.30;19.10;;;20.80;94.50;;;;;;6211930;23;20071;-82
2022/11/14 11:42:39;;;;;;;30.02;19.80;;;20.00;95.20;;;;;;6209862;23;20047;-83
2022/11/14 11:45:24;;;;;;;35.30;21.65;;;18.30;96.70;;;;;;6229678;23;20067;-82
2022/11/14 11:48:18;;;;;;;35.33;21.52;;;16.40;99.90;;;;;;6229003;23;20077;-82
2022/11/14 11:51:05;;;;;;;32.58;20.38;;;15.50;99.90;;;;;;6232201;23;20057;-81
2022/11/14 11:54:25;;;;;;;41.70;21.75;;;15.00;99.90;;;;;;6230828;23;20063;-81
2022/11/14 11:57:14;;;;;;;38.20;22.30;;;14.80;99.90;;;;;;6170559;23;20020;-83
2022/11/14 12:00:16;;;;;;;37.13;21.73;;;14.30;99.90;;;;;;6228652;23;20019;-81
2022/11/14 12:03:01;;;;;;;40.85;23.35;;;14.00;99.90;;;;;;6231655;23;20036;-81
2022/11/14 12:06:02;;;;;;;39.60;22.48;;;13.60;99.90;;;;;;6235759;23;20023;-81
2022/11/14 12:09:08;;;;;;;43.85;21.75;;;13.30;99.90;;;;;;6212204;23;20050;-81
2022/11/14 12:12:06;;;;;;;38.17;21.52;;;12.80;99.90;;;;;;6233979;23;20052;-80
2022/11/14 12:15:19;;;;;;;42.60;22.08;;;12.50;99.90;;;;;;6207004;23;20031;-81
2022/11/14 12:18:35;;;;;;;41.47;21.92;;;12.30;99.90;;;;;;6175607;23;20020;-81
2022/11/14 12:21:25;;;;;;;44.08;22.92;;;11.90;99.90;;;;;;6227222;23;20083;-82
2022/11/14 12:24:19;;;;;;;39.63;21.75;;;11.90;99.90;;;;;;6227620;23;20023;-82
2022/11/14 12:27:41;;;;;;;44.78;23.17;;;11.80;99.90;;;;;;6229635;23;20068;-82
2022/11/14 12:30:27;;;;;;;40.75;22.25;;;11.70;99.90;;;;;;6228952;23;20015;-82
2022/11/14 12:33:20;;;;;;;45.45;23.33;;;11.80;99.90;;;;;;6231125;23;20048;-81
2022/11/14 12:36:09;;;;;;;47.55;20.90;;;11.70;99.90;;;;;;6230015;23;20022;-82
2022/11/14 12:38:54;;;;;;;43.13;22.65;;;11.70;99.90;;;;;;6228681;23;20047;-81
2022/11/14 12:41:40;;;;;;;40.67;23.20;;;11.60;99.90;;;;;;6231088;23;20043;-82
2022/11/14 12:44:27;;;;;;;40.55;22.10;;;11.60;99.90;;;;;;6235313;23;20123;-80
2022/11/14 12:47:58;;;;;;;41.08;22.77;;;11.70;99.90;;;;;;6233182;23;20112;-81
2022/11/14 12:50:43;;;;;;;41.22;23.35;;;11.80;99.90;;;;;;6239205;23;20126;-84
2022/11/14 12:53:36;;;;;;;40.65;22.17;;;11.80;99.90;;;;;;6239955;23;20031;-82
2022/11/14 12:56:30;;;;;;;54.90;24.52;;;11.80;99.90;;;;;;6239918;23;20018;-80
2022/11/14 12:59:21;;;;;;;43.38;22.23;;;11.80;99.90;;;;;;6239994;23;20071;-81
2022/11/14 13:02:17;;;;;;;42.97;22.35;;;11.80;99.90;;;;;;6218613;23;20038;-81
2022/11/14 13:05:32;;;;;;;43.15;22.58;;;12.00;99.90;;;;;;6240755;23;20028;-79
2022/11/14 13:08:55;;;;;;;42.50;21.83;;;12.00;99.90;;;;;;6240325;23;20032;-79
2022/11/14 13:24:26;;;;;;;44.55;24.00;;;12.20;99.90;;;;;;6231708;23;20025;-84
2022/11/14 13:27:32;;;;;;;58.78;24.73;;;12.10;99.90;;;;;;6229795;23;20020;-80
2022/11/14 13:30:16;;;;;;;49.15;26.35;;;12.00;99.90;;;;;;6226922;23;20051;-81
2022/11/14 13:33:01;;;;;;;52.55;26.05;;;11.90;99.90;;;;;;6229638;23;20019;-81
2022/11/14 13:35:51;;;;;;;58.20;27.85;;;11.80;99.90;;;;;;6232974;23;20032;-79
2022/11/14 13:38:55;;;;;;;51.38;25.42;;;11.80;99.90;;;;;;6237732;23;20015;-81
2022/11/14 13:42:08;;;;;;;51.88;25.50;;;11.70;99.90;;;;;;6232420;23;20051;-79
2022/11/14 13:45:18;;;;;;;50.85;26.08;;;11.50;99.90;;;;;;6229059;23;20023;-82
2022/11/14 13:48:27;;;;;;;55.03;27.02;;;11.30;99.90;;;;;;6228413;23;20362;-81
2022/11/14 13:51:17;;;;;;;54.63;25.73;;;11.10;99.90;;;;;;6227716;23;20038;-81
2022/11/14 13:54:01;;;;;;;52.28;28.02;;;11.00;99.90;;;;;;6228385;23;20019;-82
2022/11/14 13:57:16;;;;;;;58.75;29.38;;;10.80;99.90;;;;;;6228575;23;20018;-83
2022/11/14 14:00:14;;;;;;;56.22;30.02;;;10.60;99.90;;;;;;6229272;23;20020;-82
2022/11/14 14:03:25;;;;;;;62.83;30.73;;;10.40;99.90;;;;;;6227284;23;20031;-81
2022/11/14 14:06:22;;;;;;;63.58;31.88;;;10.20;99.90;;;;;;6238211;23;20043;-81
2022/11/14 14:09:22;;;;;;;71.20;33.13;;;9.90;99.90;;;;;;6228761;23;20087;-83
2022/11/14 14:12:19;;;;;;;67.47;33.95;;;9.80;99.90;;;;;;6229119;23;20008;-82
2022/11/14 14:15:09;;;;;;;83.78;35.70;;;9.60;99.90;;;;;;6228002;23;20089;-82
2022/11/14 14:18:12;;;;;;;74.50;36.92;;;9.50;99.90;;;;;;6233104;23;20039;-79
2022/11/14 14:21:28;;;;;;;78.28;36.75;;;9.40;99.90;;;;;;6237049;23;20027;-82
2022/11/14 14:24:34;;;;;;;81.45;38.60;;;9.30;99.90;;;;;;6205715;23;20047;-80
2022/11/14 14:27:45;;;;;;;81.13;37.65;;;9.20;99.90;;;;;;6227560;23;20569;-80
2022/11/14 14:30:29;;;;;;;95.57;41.47;;;8.90;99.90;;;;;;6228407;23;20034;-81
2022/11/14 14:33:14;;;;;;;90.60;40.55;;;8.80;99.90;;;;;;6230962;23;20024;-83
2022/11/14 14:35:59;;;;;;;92.47;40.90;;;8.80;99.90;;;;;;6207711;23;20035;-80
2022/11/14 14:38:44;;;;;;;101.50;42.40;;;8.70;99.90;;;;;;6220133;23;20031;-80
2022/11/14 14:41:31;;;;;;;100.63;44.25;;;8.70;99.90;;;;;;6242384;23;20019;-79
2022/11/14 14:44:30;;;;;;;98.82;43.95;;;8.70;99.90;;;;;;6241699;23;20051;-80
2022/11/14 14:47:26;;;;;;;95.30;44.30;;;8.60;99.90;;;;;;6242786;23;20077;-80
2022/11/14 14:50:21;;;;;;;91.93;43.30;;;8.60;99.90;;;;;;6241595;23;20172;-78